sensor_id;sensor_type;location;lat;lon;timestamp;P1;durP1;ratioP1;P2;durP2;ratioP2
15486;SDS011;7845;53.698;10.078;2023-02-22T00:00:27;9.17;;;4.40;;
15486;SDS011;7845;53.698;10.078;2023-02-22T00:03:04;7.70;;;3.73;;
15486;SDS011;7845;53.698;10.078;2023-02-22T00:05:31;8.93;;;4.47;;
15486;SDS011;7845;53.698;10.078;2023-02-22T00:07:57;8.03;;;3.73;;
15486;SDS011;7845;53.698;10.078;2023-02-22T00:10:24;10.13;;;4.30;;
15486;SDS011;7845;53.698;10.078;2023-02-22T00:12:51;9.63;;;4.50;;
15486;SDS011;7845;53.698;10.078;2023-02-22T00:15:19;8.03;;;4.67;;
15486;SDS011;7845;53.698;10.078;2023-02-22T00:17:51;9.10;;;4.33;;
15486;SDS011;7845;53.698;10.078;2023-02-22T00:20:17;10.50;;;4.07;;
15486;SDS011;7845;53.698;10.078;2023-02-22T00:22:44;8.33;;;3.73;;
15486;SDS011;7845;53.698;10.078;2023-02-22T00:25:11;10.07;;;4.50;;
15486;SDS011;7845;53.698;10.078;2023-02-22T00:27:41;10.27;;;4.80;;
15486;SDS011;7845;53.698;10.078;2023-02-22T00:30:07;11.40;;;6.80;;
15486;SDS011;7845;53.698;10.078;2023-02-22T00:32:33;8.67;;;4.50;;
15486;SDS011;7845;53.698;10.078;2023-02-22T00:34:59;9.00;;;4.30;;
15486;SDS011;7845;53.698;10.078;2023-02-22T00:37:24;7.83;;;3.70;;
15486;SDS011;7845;53.698;10.078;2023-02-22T00:39:50;8.50;;;3.70;;
15486;SDS011;7845;53.698;10.078;2023-02-22T00:42:16;7.90;;;3.03;;
15486;SDS011;7845;53.698;10.078;2023-02-22T00:44:42;7.57;;;3.20;;
15486;SDS011;7845;53.698;10.078;2023-02-22T00:47:08;9.40;;;4.50;;
15486;SDS011;7845;53.698;10.078;2023-02-22T00:49:33;8.77;;;3.30;;
15486;SDS011;7845;53.698;10.078;2023-02-22T00:51:59;8.13;;;3.50;;
15486;SDS011;7845;53.698;10.078;2023-02-22T00:54:24;8.03;;;3.30;;
15486;SDS011;7845;53.698;10.078;2023-02-22T00:56:50;7.27;;;2.63;;
15486;SDS011;7845;53.698;10.078;2023-02-22T00:59:15;9.50;;;3.30;;
15486;SDS011;7845;53.698;10.078;2023-02-22T01:01:41;8.00;;;2.90;;
15486;SDS011;7845;53.698;10.078;2023-02-22T01:04:07;8.63;;;3.50;;
15486;SDS011;7845;53.698;10.078;2023-02-22T01:06:33;7.00;;;3.13;;
15486;SDS011;7845;53.698;10.078;2023-02-22T01:08:59;8.67;;;3.10;;
15486;SDS011;7845;53.698;10.078;2023-02-22T01:11:26;9.57;;;2.67;;
15486;SDS011;7845;53.698;10.078;2023-02-22T01:13:52;6.00;;;2.50;;
15486;SDS011;7845;53.698;10.078;2023-02-22T01:16:21;7.03;;;2.57;;
15486;SDS011;7845;53.698;10.078;2023-02-22T01:18:47;8.40;;;2.73;;
15486;SDS011;7845;53.698;10.078;2023-02-22T01:21:12;6.47;;;2.60;;
15486;SDS011;7845;53.698;10.078;2023-02-22T01:23:38;9.07;;;4.20;;
15486;SDS011;7845;53.698;10.078;2023-02-22T01:26:03;7.90;;;3.10;;
15486;SDS011;7845;53.698;10.078;2023-02-22T01:28:32;6.27;;;2.60;;
15486;SDS011;7845;53.698;10.078;2023-02-22T01:30:58;7.00;;;2.80;;
15486;SDS011;7845;53.698;10.078;2023-02-22T01:33:25;7.70;;;3.00;;
15486;SDS011;7845;53.698;10.078;2023-02-22T01:35:50;8.40;;;2.60;;
15486;SDS011;7845;53.698;10.078;2023-02-22T01:38:16;6.53;;;2.47;;
15486;SDS011;7845;53.698;10.078;2023-02-22T01:40:42;8.20;;;3.23;;
15486;SDS011;7845;53.698;10.078;2023-02-22T01:43:17;6.10;;;2.10;;
15486;SDS011;7845;53.698;10.078;2023-02-22T01:48:21;7.47;;;2.43;;
15486;SDS011;7845;53.698;10.078;2023-02-22T01:53:33;8.10;;;2.47;;
15486;SDS011;7845;53.698;10.078;2023-02-22T01:56:02;7.20;;;2.47;;
15486;SDS011;7845;53.698;10.078;2023-02-22T01:58:29;7.40;;;2.10;;
15486;SDS011;7845;53.698;10.078;2023-02-22T02:00:57;6.50;;;2.10;;
15486;SDS011;7845;53.698;10.078;2023-02-22T02:03:24;12.83;;;3.63;;
15486;SDS011;7845;53.698;10.078;2023-02-22T02:05:52;6.37;;;2.63;;
15486;SDS011;7845;53.698;10.078;2023-02-22T02:08:26;4.80;;;2.23;;
15486;SDS011;7845;53.698;10.078;2023-02-22T02:11:00;7.60;;;2.70;;
15486;SDS011;7845;53.698;10.078;2023-02-22T02:13:26;8.30;;;3.37;;
15486;SDS011;7845;53.698;10.078;2023-02-22T02:15:52;7.47;;;3.23;;
15486;SDS011;7845;53.698;10.078;2023-02-22T02:18:19;5.77;;;2.80;;
15486;SDS011;7845;53.698;10.078;2023-02-22T02:23:54;7.10;;;3.00;;
15486;SDS011;7845;53.698;10.078;2023-02-22T02:29:15;7.60;;;3.20;;
15486;SDS011;7845;53.698;10.078;2023-02-22T02:34:40;9.30;;;3.73;;
15486;SDS011;7845;53.698;10.078;2023-02-22T02:37:20;6.87;;;2.93;;
15486;SDS011;7845;53.698;10.078;2023-02-22T02:42:59;6.30;;;2.60;;
15486;SDS011;7845;53.698;10.078;2023-02-22T02:45:28;10.07;;;3.73;;
15486;SDS011;7845;53.698;10.078;2023-02-22T02:48:02;9.40;;;3.83;;
15486;SDS011;7845;53.698;10.078;2023-02-22T02:50:33;7.10;;;3.00;;
15486;SDS011;7845;53.698;10.078;2023-02-22T02:53:03;7.40;;;3.30;;
15486;SDS011;7845;53.698;10.078;2023-02-22T02:55:31;8.70;;;3.33;;
15486;SDS011;7845;53.698;10.078;2023-02-22T02:58:05;6.90;;;2.90;;
15486;SDS011;7845;53.698;10.078;2023-02-22T03:00:32;6.37;;;2.93;;
15486;SDS011;7845;53.698;10.078;2023-02-22T03:03:25;10.53;;;3.87;;
15486;SDS011;7845;53.698;10.078;2023-02-22T03:06:07;8.37;;;3.90;;
15486;SDS011;7845;53.698;10.078;2023-02-22T03:08:45;9.93;;;3.80;;
15486;SDS011;7845;53.698;10.078;2023-02-22T03:11:18;8.90;;;3.17;;
15486;SDS011;7845;53.698;10.078;2023-02-22T03:16:24;7.73;;;3.20;;
15486;SDS011;7845;53.698;10.078;2023-02-22T03:21:44;6.20;;;2.40;;
15486;SDS011;7845;53.698;10.078;2023-02-22T03:24:30;10.30;;;3.87;;
15486;SDS011;7845;53.698;10.078;2023-02-22T03:27:03;7.97;;;3.80;;
15486;SDS011;7845;53.698;10.078;2023-02-22T03:29:33;10.20;;;3.97;;
15486;SDS011;7845;53.698;10.078;2023-02-22T03:32:04;9.27;;;3.40;;
15486;SDS011;7845;53.698;10.078;2023-02-22T03:34:35;8.80;;;3.60;;
15486;SDS011;7845;53.698;10.078;2023-02-22T03:37:16;9.47;;;3.97;;
15486;SDS011;7845;53.698;10.078;2023-02-22T03:39:46;8.63;;;3.63;;
15486;SDS011;7845;53.698;10.078;2023-02-22T03:42:15;9.47;;;3.77;;
15486;SDS011;7845;53.698;10.078;2023-02-22T03:44:44;8.20;;;2.93;;
15486;SDS011;7845;53.698;10.078;2023-02-22T03:47:15;7.20;;;3.37;;
15486;SDS011;7845;53.698;10.078;2023-02-22T03:49:50;8.90;;;3.67;;
15486;SDS011;7845;53.698;10.078;2023-02-22T03:52:19;9.57;;;3.57;;
15486;SDS011;7845;53.698;10.078;2023-02-22T03:54:47;13.57;;;3.50;;
15486;SDS011;7845;53.698;10.078;2023-02-22T03:57:24;8.67;;;4.60;;
15486;SDS011;7845;53.698;10.078;2023-02-22T03:59:52;11.07;;;4.30;;
15486;SDS011;7845;53.698;10.078;2023-02-22T04:02:18;7.77;;;3.43;;
15486;SDS011;7845;53.698;10.078;2023-02-22T04:04:45;9.47;;;3.40;;
15486;SDS011;7845;53.698;10.078;2023-02-22T04:07:11;7.03;;;2.80;;
15486;SDS011;7845;53.698;10.078;2023-02-22T04:09:37;9.47;;;4.43;;
15486;SDS011;7845;53.698;10.078;2023-02-22T04:12:02;9.37;;;3.33;;
15486;SDS011;7845;53.698;10.078;2023-02-22T04:14:28;10.60;;;4.10;;
15486;SDS011;7845;53.698;10.078;2023-02-22T04:16:54;8.30;;;3.90;;
15486;SDS011;7845;53.698;10.078;2023-02-22T04:19:19;11.67;;;3.87;;
15486;SDS011;7845;53.698;10.078;2023-02-22T04:21:45;10.67;;;3.93;;
15486;SDS011;7845;53.698;10.078;2023-02-22T04:24:11;9.00;;;3.37;;
15486;SDS011;7845;53.698;10.078;2023-02-22T04:26:36;8.70;;;4.00;;
15486;SDS011;7845;53.698;10.078;2023-02-22T04:29:02;12.20;;;4.43;;
15486;SDS011;7845;53.698;10.078;2023-02-22T04:31:28;13.40;;;4.17;;
15486;SDS011;7845;53.698;10.078;2023-02-22T04:33:54;7.37;;;2.90;;
15486;SDS011;7845;53.698;10.078;2023-02-22T04:36:19;10.80;;;4.83;;
15486;SDS011;7845;53.698;10.078;2023-02-22T04:38:45;8.10;;;3.87;;
15486;SDS011;7845;53.698;10.078;2023-02-22T04:41:11;9.43;;;4.07;;
15486;SDS011;7845;53.698;10.078;2023-02-22T04:43:36;7.80;;;3.67;;
15486;SDS011;7845;53.698;10.078;2023-02-22T04:46:01;9.37;;;4.10;;
15486;SDS011;7845;53.698;10.078;2023-02-22T04:48:28;9.27;;;4.00;;
15486;SDS011;7845;53.698;10.078;2023-02-22T04:50:53;10.17;;;3.47;;
15486;SDS011;7845;53.698;10.078;2023-02-22T04:53:19;6.30;;;2.73;;
15486;SDS011;7845;53.698;10.078;2023-02-22T04:55:45;8.70;;;3.00;;
15486;SDS011;7845;53.698;10.078;2023-02-22T04:58:11;10.77;;;3.20;;
15486;SDS011;7845;53.698;10.078;2023-02-22T05:00:36;9.83;;;3.53;;
15486;SDS011;7845;53.698;10.078;2023-02-22T05:03:01;12.90;;;4.00;;
15486;SDS011;7845;53.698;10.078;2023-02-22T05:05:27;9.83;;;4.20;;
15486;SDS011;7845;53.698;10.078;2023-02-22T05:07:52;10.40;;;3.50;;
15486;SDS011;7845;53.698;10.078;2023-02-22T05:10:17;8.67;;;2.93;;
15486;SDS011;7845;53.698;10.078;2023-02-22T05:12:43;9.53;;;3.17;;
15486;SDS011;7845;53.698;10.078;2023-02-22T05:15:09;10.10;;;3.10;;
15486;SDS011;7845;53.698;10.078;2023-02-22T05:17:34;13.70;;;3.93;;
15486;SDS011;7845;53.698;10.078;2023-02-22T05:20:00;6.70;;;2.70;;
15486;SDS011;7845;53.698;10.078;2023-02-22T05:22:27;11.80;;;3.23;;
15486;SDS011;7845;53.698;10.078;2023-02-22T05:24:53;8.07;;;3.03;;
15486;SDS011;7845;53.698;10.078;2023-02-22T05:27:18;6.17;;;2.60;;
15486;SDS011;7845;53.698;10.078;2023-02-22T05:29:44;7.80;;;2.83;;
15486;SDS011;7845;53.698;10.078;2023-02-22T05:32:09;8.23;;;2.83;;
15486;SDS011;7845;53.698;10.078;2023-02-22T05:34:36;5.90;;;2.40;;
15486;SDS011;7845;53.698;10.078;2023-02-22T05:37:02;8.57;;;2.63;;
15486;SDS011;7845;53.698;10.078;2023-02-22T05:39:28;8.33;;;2.27;;
15486;SDS011;7845;53.698;10.078;2023-02-22T05:41:54;7.73;;;2.20;;
15486;SDS011;7845;53.698;10.078;2023-02-22T05:44:19;5.67;;;2.40;;
15486;SDS011;7845;53.698;10.078;2023-02-22T05:46:44;6.33;;;2.60;;
15486;SDS011;7845;53.698;10.078;2023-02-22T05:49:10;12.53;;;2.70;;
15486;SDS011;7845;53.698;10.078;2023-02-22T05:51:35;6.40;;;2.80;;
15486;SDS011;7845;53.698;10.078;2023-02-22T05:54:00;5.53;;;2.50;;
15486;SDS011;7845;53.698;10.078;2023-02-22T05:56:27;5.33;;;1.97;;
15486;SDS011;7845;53.698;10.078;2023-02-22T05:58:54;6.27;;;2.57;;
15486;SDS011;7845;53.698;10.078;2023-02-22T06:01:20;8.57;;;3.87;;
15486;SDS011;7845;53.698;10.078;2023-02-22T06:03:49;9.00;;;3.87;;
15486;SDS011;7845;53.698;10.078;2023-02-22T06:06:17;8.70;;;3.97;;
15486;SDS011;7845;53.698;10.078;2023-02-22T06:08:44;7.90;;;4.80;;
15486;SDS011;7845;53.698;10.078;2023-02-22T06:11:10;12.10;;;4.53;;
15486;SDS011;7845;53.698;10.078;2023-02-22T06:13:36;12.37;;;4.60;;
15486;SDS011;7845;53.698;10.078;2023-02-22T06:16:02;9.70;;;5.40;;
15486;SDS011;7845;53.698;10.078;2023-02-22T06:18:27;9.17;;;4.07;;
15486;SDS011;7845;53.698;10.078;2023-02-22T06:20:55;9.87;;;4.40;;
15486;SDS011;7845;53.698;10.078;2023-02-22T06:23:21;11.67;;;5.90;;
15486;SDS011;7845;53.698;10.078;2023-02-22T06:25:46;9.77;;;5.33;;
15486;SDS011;7845;53.698;10.078;2023-02-22T06:28:12;12.43;;;5.20;;
15486;SDS011;7845;53.698;10.078;2023-02-22T06:30:39;10.47;;;5.07;;
15486;SDS011;7845;53.698;10.078;2023-02-22T06:33:04;9.30;;;4.07;;
15486;SDS011;7845;53.698;10.078;2023-02-22T06:35:30;10.60;;;4.50;;
15486;SDS011;7845;53.698;10.078;2023-02-22T06:37:55;9.93;;;4.10;;
15486;SDS011;7845;53.698;10.078;2023-02-22T06:40:20;13.00;;;5.37;;
15486;SDS011;7845;53.698;10.078;2023-02-22T06:42:47;12.30;;;5.77;;
15486;SDS011;7845;53.698;10.078;2023-02-22T06:45:13;12.30;;;5.30;;
15486;SDS011;7845;53.698;10.078;2023-02-22T06:47:39;10.13;;;4.70;;
15486;SDS011;7845;53.698;10.078;2023-02-22T06:50:05;11.27;;;4.70;;
15486;SDS011;7845;53.698;10.078;2023-02-22T06:52:32;10.73;;;4.80;;
15486;SDS011;7845;53.698;10.078;2023-02-22T06:54:59;11.80;;;5.00;;
15486;SDS011;7845;53.698;10.078;2023-02-22T06:57:24;10.17;;;4.80;;
15486;SDS011;7845;53.698;10.078;2023-02-22T06:59:50;9.30;;;5.43;;
15486;SDS011;7845;53.698;10.078;2023-02-22T07:02:15;16.60;;;6.87;;
15486;SDS011;7845;53.698;10.078;2023-02-22T07:04:41;14.50;;;6.10;;
15486;SDS011;7845;53.698;10.078;2023-02-22T07:07:06;13.93;;;6.80;;
15486;SDS011;7845;53.698;10.078;2023-02-22T07:09:31;12.00;;;6.40;;
15486;SDS011;7845;53.698;10.078;2023-02-22T07:11:57;12.13;;;5.70;;
15486;SDS011;7845;53.698;10.078;2023-02-22T07:14:22;12.27;;;6.13;;
15486;SDS011;7845;53.698;10.078;2023-02-22T07:16:48;14.60;;;6.03;;
15486;SDS011;7845;53.698;10.078;2023-02-22T07:19:13;12.40;;;5.77;;
15486;SDS011;7845;53.698;10.078;2023-02-22T07:21:38;9.23;;;4.53;;
15486;SDS011;7845;53.698;10.078;2023-02-22T07:24:04;11.70;;;6.10;;
15486;SDS011;7845;53.698;10.078;2023-02-22T07:26:30;16.13;;;7.20;;
15486;SDS011;7845;53.698;10.078;2023-02-22T07:28:55;14.77;;;6.17;;
15486;SDS011;7845;53.698;10.078;2023-02-22T07:31:20;14.00;;;5.73;;
15486;SDS011;7845;53.698;10.078;2023-02-22T07:33:46;14.93;;;6.50;;
15486;SDS011;7845;53.698;10.078;2023-02-22T07:36:12;15.10;;;6.23;;
15486;SDS011;7845;53.698;10.078;2023-02-22T07:38:41;10.57;;;6.20;;
15486;SDS011;7845;53.698;10.078;2023-02-22T07:41:07;12.70;;;6.10;;
15486;SDS011;7845;53.698;10.078;2023-02-22T07:43:32;14.23;;;6.40;;
15486;SDS011;7845;53.698;10.078;2023-02-22T07:45:58;15.93;;;7.17;;
15486;SDS011;7845;53.698;10.078;2023-02-22T07:48:27;16.43;;;7.30;;
15486;SDS011;7845;53.698;10.078;2023-02-22T07:50:55;13.10;;;6.27;;
15486;SDS011;7845;53.698;10.078;2023-02-22T07:53:26;11.30;;;5.93;;
15486;SDS011;7845;53.698;10.078;2023-02-22T07:55:56;15.67;;;6.37;;
15486;SDS011;7845;53.698;10.078;2023-02-22T07:58:23;15.70;;;6.23;;
15486;SDS011;7845;53.698;10.078;2023-02-22T08:00:49;16.03;;;8.40;;
15486;SDS011;7845;53.698;10.078;2023-02-22T08:03:15;13.00;;;6.63;;
15486;SDS011;7845;53.698;10.078;2023-02-22T08:05:46;15.93;;;7.33;;
15486;SDS011;7845;53.698;10.078;2023-02-22T08:08:13;12.83;;;6.90;;
15486;SDS011;7845;53.698;10.078;2023-02-22T08:10:40;11.67;;;6.70;;
15486;SDS011;7845;53.698;10.078;2023-02-22T08:13:06;13.93;;;6.43;;
15486;SDS011;7845;53.698;10.078;2023-02-22T08:15:33;12.07;;;6.00;;
15486;SDS011;7845;53.698;10.078;2023-02-22T08:18:01;11.10;;;5.90;;
15486;SDS011;7845;53.698;10.078;2023-02-22T08:20:27;13.50;;;6.73;;
15486;SDS011;7845;53.698;10.078;2023-02-22T08:22:53;15.67;;;7.43;;
15486;SDS011;7845;53.698;10.078;2023-02-22T08:25:24;13.73;;;6.73;;
15486;SDS011;7845;53.698;10.078;2023-02-22T08:27:51;14.90;;;6.50;;
15486;SDS011;7845;53.698;10.078;2023-02-22T08:30:22;14.50;;;6.87;;
15486;SDS011;7845;53.698;10.078;2023-02-22T08:32:49;12.83;;;6.20;;
15486;SDS011;7845;53.698;10.078;2023-02-22T08:35:15;12.00;;;6.43;;
15486;SDS011;7845;53.698;10.078;2023-02-22T08:37:45;12.60;;;6.73;;
15486;SDS011;7845;53.698;10.078;2023-02-22T08:40:13;14.20;;;7.40;;
15486;SDS011;7845;53.698;10.078;2023-02-22T08:42:41;14.20;;;7.57;;
15486;SDS011;7845;53.698;10.078;2023-02-22T08:45:07;14.10;;;7.40;;
15486;SDS011;7845;53.698;10.078;2023-02-22T08:47:33;12.00;;;7.40;;
15486;SDS011;7845;53.698;10.078;2023-02-22T08:49:58;12.83;;;7.47;;
15486;SDS011;7845;53.698;10.078;2023-02-22T08:52:23;13.77;;;6.93;;
15486;SDS011;7845;53.698;10.078;2023-02-22T08:54:50;13.93;;;7.60;;
15486;SDS011;7845;53.698;10.078;2023-02-22T08:57:15;14.47;;;7.10;;
15486;SDS011;7845;53.698;10.078;2023-02-22T08:59:40;13.07;;;6.60;;
15486;SDS011;7845;53.698;10.078;2023-02-22T09:02:17;9.80;;;5.70;;
15486;SDS011;7845;53.698;10.078;2023-02-22T09:04:44;12.50;;;6.57;;
15486;SDS011;7845;53.698;10.078;2023-02-22T09:07:10;10.57;;;6.20;;
15486;SDS011;7845;53.698;10.078;2023-02-22T09:09:36;13.40;;;7.57;;
15486;SDS011;7845;53.698;10.078;2023-02-22T09:12:01;12.33;;;6.87;;
15486;SDS011;7845;53.698;10.078;2023-02-22T09:14:27;11.10;;;6.83;;
15486;SDS011;7845;53.698;10.078;2023-02-22T09:16:54;11.40;;;6.23;;
15486;SDS011;7845;53.698;10.078;2023-02-22T09:19:19;15.10;;;7.17;;
15486;SDS011;7845;53.698;10.078;2023-02-22T09:21:50;12.83;;;7.43;;
15486;SDS011;7845;53.698;10.078;2023-02-22T09:24:17;13.27;;;7.27;;
15486;SDS011;7845;53.698;10.078;2023-02-22T09:26:45;10.70;;;6.77;;
15486;SDS011;7845;53.698;10.078;2023-02-22T09:29:24;12.77;;;6.57;;
15486;SDS011;7845;53.698;10.078;2023-02-22T09:31:52;10.33;;;6.30;;
15486;SDS011;7845;53.698;10.078;2023-02-22T09:34:19;11.67;;;7.47;;
15486;SDS011;7845;53.698;10.078;2023-02-22T09:36:47;13.30;;;7.27;;
15486;SDS011;7845;53.698;10.078;2023-02-22T09:39:16;11.20;;;7.20;;
15486;SDS011;7845;53.698;10.078;2023-02-22T09:44:30;13.80;;;8.03;;
15486;SDS011;7845;53.698;10.078;2023-02-22T09:47:01;13.03;;;7.50;;
15486;SDS011;7845;53.698;10.078;2023-02-22T09:49:33;13.97;;;7.77;;
15486;SDS011;7845;53.698;10.078;2023-02-22T09:52:35;12.60;;;7.17;;
15486;SDS011;7845;53.698;10.078;2023-02-22T09:55:11;12.73;;;6.77;;
15486;SDS011;7845;53.698;10.078;2023-02-22T09:57:52;12.43;;;6.10;;
15486;SDS011;7845;53.698;10.078;2023-02-22T10:00:23;11.60;;;6.10;;
15486;SDS011;7845;53.698;10.078;2023-02-22T10:03:14;13.00;;;6.70;;
15486;SDS011;7845;53.698;10.078;2023-02-22T10:05:43;10.87;;;6.30;;
15486;SDS011;7845;53.698;10.078;2023-02-22T10:08:15;13.07;;;7.43;;
15486;SDS011;7845;53.698;10.078;2023-02-22T10:10:44;12.70;;;6.80;;
15486;SDS011;7845;53.698;10.078;2023-02-22T10:24:17;10.50;;;6.13;;
15486;SDS011;7845;53.698;10.078;2023-02-22T10:26:47;9.63;;;5.77;;
15486;SDS011;7845;53.698;10.078;2023-02-22T10:32:04;12.90;;;7.40;;
15486;SDS011;7845;53.698;10.078;2023-02-22T10:34:38;13.03;;;7.23;;
15486;SDS011;7845;53.698;10.078;2023-02-22T10:39:56;11.87;;;6.57;;
15486;SDS011;7845;53.698;10.078;2023-02-22T10:42:35;14.00;;;8.10;;
15486;SDS011;7845;53.698;10.078;2023-02-22T10:45:01;11.93;;;7.37;;
15486;SDS011;7845;53.698;10.078;2023-02-22T10:47:26;11.50;;;6.73;;
15486;SDS011;7845;53.698;10.078;2023-02-22T10:49:54;12.37;;;7.10;;
15486;SDS011;7845;53.698;10.078;2023-02-22T10:54:51;11.27;;;6.03;;
15486;SDS011;7845;53.698;10.078;2023-02-22T10:57:21;14.53;;;7.17;;
15486;SDS011;7845;53.698;10.078;2023-02-22T10:59:53;10.70;;;6.07;;
15486;SDS011;7845;53.698;10.078;2023-02-22T11:02:29;11.50;;;6.83;;
15486;SDS011;7845;53.698;10.078;2023-02-22T11:04:57;11.00;;;6.30;;
15486;SDS011;7845;53.698;10.078;2023-02-22T11:07:31;11.77;;;7.00;;
15486;SDS011;7845;53.698;10.078;2023-02-22T11:10:00;12.60;;;7.83;;
15486;SDS011;7845;53.698;10.078;2023-02-22T11:12:31;10.93;;;6.43;;
15486;SDS011;7845;53.698;10.078;2023-02-22T11:17:46;13.00;;;8.10;;
15486;SDS011;7845;53.698;10.078;2023-02-22T11:20:21;12.63;;;7.00;;
15486;SDS011;7845;53.698;10.078;2023-02-22T11:22:51;12.07;;;7.27;;
15486;SDS011;7845;53.698;10.078;2023-02-22T11:25:23;11.30;;;6.90;;
15486;SDS011;7845;53.698;10.078;2023-02-22T11:27:51;13.80;;;7.17;;
15486;SDS011;7845;53.698;10.078;2023-02-22T11:32:58;12.90;;;7.50;;
15486;SDS011;7845;53.698;10.078;2023-02-22T11:40:45;12.60;;;7.80;;
15486;SDS011;7845;53.698;10.078;2023-02-22T11:43:16;15.67;;;8.83;;
15486;SDS011;7845;53.698;10.078;2023-02-22T11:48:28;11.57;;;7.60;;
15486;SDS011;7845;53.698;10.078;2023-02-22T11:53:44;12.53;;;7.27;;
15486;SDS011;7845;53.698;10.078;2023-02-22T11:56:24;12.87;;;6.60;;
15486;SDS011;7845;53.698;10.078;2023-02-22T12:01:48;14.40;;;7.90;;
15486;SDS011;7845;53.698;10.078;2023-02-22T12:07:06;12.17;;;7.50;;
15486;SDS011;7845;53.698;10.078;2023-02-22T12:15:40;15.90;;;9.47;;
15486;SDS011;7845;53.698;10.078;2023-02-22T12:21:41;14.90;;;8.60;;
15486;SDS011;7845;53.698;10.078;2023-02-22T12:24:15;13.23;;;8.30;;
15486;SDS011;7845;53.698;10.078;2023-02-22T12:26:52;14.80;;;7.87;;
15486;SDS011;7845;53.698;10.078;2023-02-22T12:29:36;12.07;;;8.10;;
15486;SDS011;7845;53.698;10.078;2023-02-22T12:32:53;13.13;;;7.43;;
15486;SDS011;7845;53.698;10.078;2023-02-22T12:35:35;12.13;;;8.27;;
15486;SDS011;7845;53.698;10.078;2023-02-22T12:38:12;14.00;;;8.50;;
15486;SDS011;7845;53.698;10.078;2023-02-22T12:40:54;14.20;;;8.83;;
15486;SDS011;7845;53.698;10.078;2023-02-22T12:44:13;12.90;;;8.00;;
15486;SDS011;7845;53.698;10.078;2023-02-22T12:46:39;13.30;;;8.20;;
15486;SDS011;7845;53.698;10.078;2023-02-22T12:49:33;14.40;;;8.00;;
15486;SDS011;7845;53.698;10.078;2023-02-22T12:52:12;11.63;;;7.17;;
15486;SDS011;7845;53.698;10.078;2023-02-22T12:54:47;12.20;;;7.63;;
15486;SDS011;7845;53.698;10.078;2023-02-22T12:57:39;12.43;;;7.73;;
15486;SDS011;7845;53.698;10.078;2023-02-22T13:00:18;12.90;;;8.00;;
15486;SDS011;7845;53.698;10.078;2023-02-22T13:05:33;11.90;;;7.40;;
15486;SDS011;7845;53.698;10.078;2023-02-22T13:10:49;10.53;;;6.20;;
15486;SDS011;7845;53.698;10.078;2023-02-22T13:18:42;10.70;;;6.40;;
15486;SDS011;7845;53.698;10.078;2023-02-22T13:24:04;12.23;;;7.10;;
15486;SDS011;7845;53.698;10.078;2023-02-22T13:26:44;12.67;;;6.93;;
15486;SDS011;7845;53.698;10.078;2023-02-22T13:29:14;12.53;;;6.87;;
15486;SDS011;7845;53.698;10.078;2023-02-22T13:40:24;9.70;;;6.10;;
15486;SDS011;7845;53.698;10.078;2023-02-22T13:42:58;10.97;;;6.60;;
15486;SDS011;7845;53.698;10.078;2023-02-22T13:45:56;12.57;;;7.87;;
15486;SDS011;7845;53.698;10.078;2023-02-22T13:48:38;12.97;;;7.90;;
15486;SDS011;7845;53.698;10.078;2023-02-22T13:51:29;11.13;;;6.23;;
15486;SDS011;7845;53.698;10.078;2023-02-22T13:54:03;12.23;;;7.03;;
15486;SDS011;7845;53.698;10.078;2023-02-22T13:56:42;10.10;;;6.30;;
15486;SDS011;7845;53.698;10.078;2023-02-22T13:59:20;12.20;;;7.87;;
15486;SDS011;7845;53.698;10.078;2023-02-22T14:01:51;11.13;;;7.47;;
15486;SDS011;7845;53.698;10.078;2023-02-22T14:06:57;12.33;;;7.10;;
15486;SDS011;7845;53.698;10.078;2023-02-22T14:09:43;12.37;;;6.23;;
15486;SDS011;7845;53.698;10.078;2023-02-22T14:12:38;10.93;;;6.00;;
15486;SDS011;7845;53.698;10.078;2023-02-22T14:17:57;11.20;;;6.33;;
15486;SDS011;7845;53.698;10.078;2023-02-22T14:20:24;11.50;;;6.50;;
15486;SDS011;7845;53.698;10.078;2023-02-22T14:22:55;9.70;;;6.00;;
15486;SDS011;7845;53.698;10.078;2023-02-22T14:25:30;12.33;;;7.67;;
15486;SDS011;7845;53.698;10.078;2023-02-22T14:27:56;10.97;;;6.97;;
15486;SDS011;7845;53.698;10.078;2023-02-22T14:30:23;11.53;;;6.73;;
15486;SDS011;7845;53.698;10.078;2023-02-22T14:32:52;11.70;;;5.97;;
15486;SDS011;7845;53.698;10.078;2023-02-22T14:35:17;12.87;;;6.70;;
15486;SDS011;7845;53.698;10.078;2023-02-22T14:37:47;11.43;;;6.37;;
15486;SDS011;7845;53.698;10.078;2023-02-22T14:40:28;11.00;;;6.13;;
15486;SDS011;7845;53.698;10.078;2023-02-22T14:43:00;10.80;;;6.23;;
15486;SDS011;7845;53.698;10.078;2023-02-22T14:45:30;10.80;;;6.50;;
15486;SDS011;7845;53.698;10.078;2023-02-22T14:53:04;11.13;;;6.20;;
15486;SDS011;7845;53.698;10.078;2023-02-22T14:55:51;10.40;;;6.10;;
15486;SDS011;7845;53.698;10.078;2023-02-22T14:58:27;11.33;;;6.73;;
15486;SDS011;7845;53.698;10.078;2023-02-22T15:00:58;11.60;;;7.50;;
15486;SDS011;7845;53.698;10.078;2023-02-22T15:03:25;10.00;;;6.10;;
15486;SDS011;7845;53.698;10.078;2023-02-22T15:08:29;13.90;;;7.20;;
15486;SDS011;7845;53.698;10.078;2023-02-22T15:10:56;9.03;;;6.47;;
15486;SDS011;7845;53.698;10.078;2023-02-22T15:13:24;12.00;;;7.67;;
15486;SDS011;7845;53.698;10.078;2023-02-22T15:15:55;12.70;;;6.73;;
15486;SDS011;7845;53.698;10.078;2023-02-22T15:21:06;13.73;;;7.83;;
15486;SDS011;7845;53.698;10.078;2023-02-22T15:23:54;12.67;;;8.20;;
15486;SDS011;7845;53.698;10.078;2023-02-22T15:31:45;11.07;;;6.67;;
15486;SDS011;7845;53.698;10.078;2023-02-22T15:36:36;10.60;;;6.63;;
15486;SDS011;7845;53.698;10.078;2023-02-22T15:39:01;12.10;;;7.23;;
15486;SDS011;7845;53.698;10.078;2023-02-22T15:41:32;14.50;;;8.83;;
15486;SDS011;7845;53.698;10.078;2023-02-22T15:44:07;16.13;;;8.73;;
15486;SDS011;7845;53.698;10.078;2023-02-22T15:46:35;13.60;;;7.57;;
15486;SDS011;7845;53.698;10.078;2023-02-22T15:49:06;11.97;;;6.73;;
15486;SDS011;7845;53.698;10.078;2023-02-22T15:51:43;9.93;;;6.37;;
15486;SDS011;7845;53.698;10.078;2023-02-22T15:54:10;10.30;;;7.00;;
15486;SDS011;7845;53.698;10.078;2023-02-22T15:56:40;10.90;;;6.60;;
15486;SDS011;7845;53.698;10.078;2023-02-22T15:59:15;13.60;;;7.70;;
15486;SDS011;7845;53.698;10.078;2023-02-22T16:01:47;14.03;;;7.87;;
15486;SDS011;7845;53.698;10.078;2023-02-22T16:04:18;13.17;;;7.37;;
15486;SDS011;7845;53.698;10.078;2023-02-22T16:06:46;12.37;;;7.20;;
15486;SDS011;7845;53.698;10.078;2023-02-22T16:09:16;12.23;;;7.13;;
15486;SDS011;7845;53.698;10.078;2023-02-22T16:11:49;12.80;;;6.93;;
15486;SDS011;7845;53.698;10.078;2023-02-22T16:14:38;14.00;;;7.60;;
15486;SDS011;7845;53.698;10.078;2023-02-22T16:17:10;12.37;;;6.87;;
15486;SDS011;7845;53.698;10.078;2023-02-22T16:19:55;11.70;;;6.27;;
15486;SDS011;7845;53.698;10.078;2023-02-22T16:22:34;11.53;;;6.60;;
15486;SDS011;7845;53.698;10.078;2023-02-22T16:27:52;8.80;;;5.30;;
15486;SDS011;7845;53.698;10.078;2023-02-22T16:30:28;12.33;;;5.30;;
15486;SDS011;7845;53.698;10.078;2023-02-22T16:32:56;10.07;;;6.10;;
15486;SDS011;7845;53.698;10.078;2023-02-22T16:35:26;10.40;;;5.90;;
15486;SDS011;7845;53.698;10.078;2023-02-22T16:38:25;11.40;;;6.67;;
15486;SDS011;7845;53.698;10.078;2023-02-22T16:40:51;11.40;;;6.30;;
15486;SDS011;7845;53.698;10.078;2023-02-22T16:43:20;14.53;;;7.33;;
15486;SDS011;7845;53.698;10.078;2023-02-22T16:45:48;12.53;;;7.13;;
15486;SDS011;7845;53.698;10.078;2023-02-22T16:48:23;9.17;;;5.40;;
15486;SDS011;7845;53.698;10.078;2023-02-22T16:50:51;9.90;;;6.27;;
15486;SDS011;7845;53.698;10.078;2023-02-22T16:53:18;13.67;;;6.30;;
15486;SDS011;7845;53.698;10.078;2023-02-22T16:55:46;7.70;;;4.47;;
15486;SDS011;7845;53.698;10.078;2023-02-22T16:58:12;10.70;;;5.23;;